»·PEaware :: BAW279 EGLL-KSJC

BAW279 :: EGLL-KSJC

FLIGHT INFORMATION

Flight Status: Arrived
Operator:
British Airways
More flights by this operator :: More flights under this callsign
Pilot: Max H. (24278)
Aircraft: Unknown
(B789)
More flights by this aircraft type
Origin: EGLL Heathrow
United Kingdom
Destination: KSJC Mineta San Jose Intl
United States
More flights between these airports :: More routes between these airports
Route: +HLN LKT J7 REO MDOWS RAZRR4
File this flight plan on PilotEdge
Remarks:
Altitude:
(Current/Filed)
36,000ft
Speed:
(Current/Filed)
300kts
Departed: 16-Jun-19 10:24 AM
Arrived: 16-Jun-19 12:35 PM
Distance/Time
Traveled:
4650nm/2:11
Distance/Time
To Go:
Arrived

Flight Plot

Page will automatically refresh every two minutes.

Flight plan parsing failed; only flown route is shown


Map Options




Map Legend


Flown Route
Filed Route
Departure Airport
Arrival Airport
Navaid (VOR, NDB)
Fix

Horizontal Profiles

Position Reports

Time Latitude Longitude Heading Altitude Ground
Speed
16-Jun-19 10:22 48.635210 -108.660221 235 35715ft 455kts
16-Jun-19 10:23 48.551691 -108.804209 235 35710ft 455kts
16-Jun-19 10:24 48.468229 -108.947256 235 35725ft 455kts
16-Jun-19 10:25 48.384298 -109.090466 235 35736ft 455kts
16-Jun-19 10:26 48.300519 -109.232596 235 35734ft 455kts
16-Jun-19 10:27 48.216271 -109.374718 234 35729ft 455kts
16-Jun-19 10:28 48.131990 -109.516142 234 35746ft 455kts
16-Jun-19 10:29 48.047628 -109.656922 234 35759ft 455kts
16-Jun-19 10:30 47.962710 -109.797955 234 35766ft 455kts
16-Jun-19 10:31 47.877982 -109.937988 234 35782ft 456kts
16-Jun-19 10:32 47.792639 -110.078205 233 35798ft 456kts
16-Jun-19 10:33 47.707139 -110.217853 233 35802ft 456kts
16-Jun-19 10:34 47.621590 -110.356881 233 35811ft 457kts
16-Jun-19 10:35 47.535629 -110.495929 233 35825ft 457kts
16-Jun-19 10:36 47.449388 -110.634700 233 35825ft 458kts
16-Jun-19 10:37 47.363008 -110.772946 232 35823ft 459kts
16-Jun-19 10:38 47.276308 -110.910970 232 35834ft 460kts
16-Jun-19 10:39 47.189156 -111.049011 232 35838ft 460kts
16-Jun-19 10:40 47.101933 -111.186439 232 35835ft 460kts
16-Jun-19 10:41 47.014289 -111.323805 231 35831ft 461kts
16-Jun-19 10:42 46.927056 -111.459861 231 35858ft 461kts
16-Jun-19 10:43 46.839067 -111.596390 231 35867ft 461kts
16-Jun-19 10:44 46.750679 -111.732817 231 35867ft 462kts
16-Jun-19 10:45 46.662293 -111.868572 230 35879ft 463kts
16-Jun-19 10:46 46.571555 -112.002724 228 35885ft 464kts
16-Jun-19 10:47 46.478279 -112.132885 228 35888ft 465kts
16-Jun-19 10:48 46.384911 -112.262368 227 35901ft 465kts
16-Jun-19 10:49 46.291099 -112.391818 227 35934ft 466kts
16-Jun-19 10:50 46.197168 -112.520870 227 35964ft 465kts
16-Jun-19 10:51 46.103273 -112.649224 227 35970ft 465kts
16-Jun-19 10:52 46.009382 -112.776958 227 35965ft 464kts
16-Jun-19 10:53 45.914999 -112.904681 226 35965ft 466kts
16-Jun-19 10:54 45.820755 -113.031604 226 35963ft 466kts
16-Jun-19 10:55 45.726280 -113.158259 226 35941ft 466kts
16-Jun-19 10:56 45.631299 -113.284877 226 35931ft 465kts
16-Jun-19 10:57 45.536378 -113.410943 226 35931ft 465kts
16-Jun-19 10:58 45.441600 -113.536203 225 35917ft 465kts
16-Jun-19 10:59 45.346782 -113.660734 225 35903ft 465kts
16-Jun-19 11:00 45.251460 -113.785487 225 35904ft 465kts
16-Jun-19 11:01 45.156387 -113.909268 225 35907ft 466kts
16-Jun-19 11:02 45.060696 -114.033296 225 35897ft 466kts
16-Jun-19 11:03 44.969032 -114.162655 228 35912ft 464kts
16-Jun-19 11:05 44.879838 -114.294439 228 35944ft 464kts
16-Jun-19 11:06 44.790383 -114.426518 228 35975ft 465kts
16-Jun-19 11:07 44.700943 -114.557940 228 35983ft 465kts
16-Jun-19 11:08 44.611209 -114.689211 228 36000ft 466kts
16-Jun-19 11:09 44.521600 -114.819712 228 36023ft 466kts
16-Jun-19 11:10 44.431468 -114.950252 228 36057ft 465kts
16-Jun-19 11:11 44.341361 -115.080222 228 36070ft 465kts
16-Jun-19 11:12 44.251215 -115.209603 227 36065ft 465kts
16-Jun-19 11:13 44.160635 -115.339018 227 36059ft 465kts
16-Jun-19 11:14 44.070115 -115.467753 227 36034ft 465kts
16-Jun-19 11:15 43.979401 -115.596112 227 36006ft 466kts
16-Jun-19 11:16 43.888357 -115.724366 227 35969ft 467kts
16-Jun-19 11:17 43.797071 -115.852476 227 35932ft 466kts
16-Jun-19 11:18 43.705743 -115.979963 227 35888ft 466kts
16-Jun-19 11:19 43.614396 -116.106788 226 35858ft 467kts
16-Jun-19 11:20 43.527807 -116.240238 232 35862ft 466kts
16-Jun-19 11:21 43.447616 -116.380112 233 35865ft 466kts
16-Jun-19 11:21 43.381467 -116.497546 233 35851ft 466kts
16-Jun-19 11:23 43.288584 -116.661835 233 35847ft 466kts
16-Jun-19 11:24 43.209081 -116.801737 233 35851ft 466kts
16-Jun-19 11:24 43.142388 -116.918651 233 35869ft 466kts
16-Jun-19 11:26 43.048916 -117.081541 233 35878ft 466kts
16-Jun-19 11:27 42.968485 -117.221160 232 35912ft 466kts
16-Jun-19 11:27 42.901740 -117.336348 232 35920ft 466kts
16-Jun-19 11:28 42.821440 -117.474536 232 35934ft 466kts
16-Jun-19 11:30 42.727146 -117.635846 232 35944ft 466kts
16-Jun-19 11:30 42.659612 -117.750835 232 35935ft 466kts
16-Jun-19 11:31 42.568699 -117.874298 211 35958ft 469kts
16-Jun-19 11:32 42.450865 -117.951989 206 35932ft 472kts
16-Jun-19 11:33 42.331042 -118.025334 206 35940ft 473kts
16-Jun-19 11:34 42.210594 -118.098704 205 35952ft 474kts
16-Jun-19 11:35 42.090360 -118.171620 205 35951ft 474kts
16-Jun-19 11:36 41.970178 -118.244257 205 35945ft 474kts
16-Jun-19 11:37 41.849795 -118.316683 205 35955ft 474kts
16-Jun-19 11:38 41.729026 -118.389034 205 35966ft 474kts
16-Jun-19 11:39 41.608712 -118.460817 205 35964ft 474kts
16-Jun-19 11:40 41.487860 -118.532563 205 35972ft 475kts
16-Jun-19 11:41 41.364927 -118.597293 195 35994ft 475kts
16-Jun-19 11:42 41.236047 -118.636931 195 35980ft 475kts
16-Jun-19 11:43 41.108232 -118.680672 196 35978ft 475kts
16-Jun-19 11:44 40.980174 -118.724996 196 35999ft 476kts
16-Jun-19 11:45 40.852172 -118.768823 196 35981ft 476kts
16-Jun-19 11:46 40.723516 -118.812775 196 35982ft 477kts
16-Jun-19 11:47 40.594827 -118.856548 196 35988ft 477kts
16-Jun-19 11:48 40.466078 -118.900149 195 35983ft 478kts
16-Jun-19 11:49 40.337267 -118.943645 195 35971ft 478kts
16-Jun-19 11:50 40.208728 -118.986851 195 35975ft 478kts
16-Jun-19 11:51 40.079682 -119.030053 195 35986ft 478kts
16-Jun-19 11:52 39.950486 -119.073125 195 35985ft 479kts
16-Jun-19 11:53 39.821417 -119.116157 197 35981ft 480kts
16-Jun-19 11:54 39.693077 -119.164271 193 35998ft 480kts
16-Jun-19 11:55 39.563143 -119.204191 195 36006ft 480kts
16-Jun-19 11:56 39.433681 -119.246724 195 36009ft 480kts
16-Jun-19 11:57 39.304124 -119.289018 195 36041ft 480kts
16-Jun-19 11:58 39.174644 -119.331059 195 36043ft 480kts
16-Jun-19 11:59 39.044758 -119.373113 195 36077ft 481kts
16-Jun-19 12:00 38.914611 -119.415101 195 36096ft 481kts
16-Jun-19 12:01 38.784720 -119.456897 195 36078ft 482kts
16-Jun-19 12:02 38.654474 -119.498552 195 36075ft 483kts
16-Jun-19 12:03 38.523776 -119.540230 195 36058ft 484kts
16-Jun-19 12:04 38.393295 -119.581690 195 36088ft 485kts
16-Jun-19 12:05 38.261971 -119.623282 195 36087ft 485kts
16-Jun-19 12:06 38.131001 -119.664600 195 36107ft 486kts
16-Jun-19 12:07 37.999885 -119.705981 195 36100ft 486kts
16-Jun-19 12:08 37.868603 -119.747321 195 36045ft 486kts
16-Jun-19 12:09 37.737818 -119.788329 195 34504ft 480kts
16-Jun-19 12:10 37.607911 -119.828945 194 32828ft 481kts
16-Jun-19 12:11 37.477900 -119.869455 194 31201ft 481kts
16-Jun-19 12:12 37.349386 -119.909337 194 29567ft 470kts
16-Jun-19 12:13 37.248778 -119.996980 240 27473ft 432kts
16-Jun-19 12:14 37.211250 -120.132869 257 25952ft 403kts
16-Jun-19 12:15 37.193529 -120.270527 261 24425ft 397kts
16-Jun-19 12:16 37.178591 -120.406313 261 22839ft 388kts
16-Jun-19 12:17 37.163924 -120.538529 261 21362ft 378kts
16-Jun-19 12:18 37.149431 -120.668028 261 19948ft 371kts
16-Jun-19 12:19 37.135188 -120.795107 261 18426ft 363kts
16-Jun-19 12:20 37.121464 -120.918732 261 16757ft 354kts
16-Jun-19 12:21 37.107914 -121.039660 261 15169ft 345kts
16-Jun-19 12:22 37.103925 -121.155994 274 13584ft 322kts
16-Jun-19 12:23 37.114583 -121.266222 277 11329ft 315kts
16-Jun-19 12:24 37.126483 -121.373235 277 9137ft 306kts
16-Jun-19 12:25 37.138126 -121.477557 278 7091ft 292kts
16-Jun-19 12:26 37.148691 -121.572426 278 5976ft 259kts
16-Jun-19 12:27 37.158257 -121.659048 278 4957ft 243kts
16-Jun-19 12:28 37.180535 -121.733730 313 4080ft 212kts
16-Jun-19 12:29 37.221409 -121.774620 317 3557ft 174kts
16-Jun-19 12:30 37.256094 -121.813522 317 2643ft 156kts
16-Jun-19 12:31 37.286659 -121.846869 315 1887ft 141kts
16-Jun-19 12:32 37.316234 -121.878918 316 1140ft 139kts
16-Jun-19 12:33 37.344952 -121.910395 320 407ft 135kts
16-Jun-19 12:34 37.366769 -121.934364 320 75ft 16kts
16-Jun-19 12:35 37.368762 -121.932406 47 75ft 18kts
16-Jun-19 12:36 37.370225 -121.930249 49 75ft 0kts
16-Jun-19 12:37 37.370226 -121.930248 49 75ft 0kts
16-Jun-19 12:38 37.370226 -121.930248 49 75ft 0kts

Navigation Log

Ident Type
Flight plan parsing failed, navigation log unavailable